Time;durP1;ratioP1;P1;durP2;ratioP2;P2;SDS_P1;SDS_P2;PMS_P1;PMS_P2;Temp;Humidity;BMP_temperature;BMP_pressure;BME280_temperature;BME280_humidity;BME280_pressure;Samples;Min_cycle;Max_cycle;Signal;HPM_P1;HPM_P2
2023/12/21 00:02:17;;;;;;;15.60;7.10;;;;;;;-147.86;100.00;46271.49;105869;1257;64551;-50
2023/12/21 00:04:44;;;;;;;15.50;7.40;;;;;;;-147.86;100.00;46274.23;105855;1254;71783;-51
2023/12/21 00:07:11;;;;;;;12.40;6.90;;;;;;;-147.86;100.00;46273.45;105839;1257;61845;-49
2023/12/21 00:09:38;;;;;;;12.80;7.20;;;;;;;-147.86;100.00;46274.63;105846;1253;60559;-51
2023/12/21 00:12:05;;;;;;;16.30;7.80;;;;;;;-147.86;100.00;46276.19;105786;1254;73849;-49
2023/12/21 00:14:33;;;;;;;13.50;7.00;;;;;;;-147.86;100.00;46273.45;105884;1260;64309;-48
2023/12/21 00:17:00;;;;;;;14.10;7.00;;;;;;;-147.86;100.00;46271.49;105841;1260;71466;-49
2023/12/21 00:19:27;;;;;;;12.00;7.10;;;;;;;-147.86;100.00;46275.02;105853;1257;61832;-49
2023/12/21 00:21:54;;;;;;;12.10;6.50;;;;;;;-147.86;100.00;46273.45;105815;1254;60402;-48
2023/12/21 00:24:21;;;;;;;15.40;6.90;;;;;;;-147.86;100.00;46277.37;105797;1259;73730;-47
2023/12/21 00:26:47;;;;;;;11.60;6.70;;;;;;;-147.86;100.00;46275.02;105838;1257;64681;-51
2023/12/21 00:29:14;;;;;;;10.50;6.40;;;;;;;-147.86;100.00;46276.19;105852;1257;72652;-50
2023/12/21 00:31:41;;;;;;;11.10;6.80;;;;;;;-147.86;100.00;46278.54;105842;1254;60536;-52
2023/12/21 00:34:08;;;;;;;13.00;7.00;;;;;;;-147.86;100.00;46276.19;105855;1252;60540;-49
2023/12/21 00:36:35;;;;;;;13.70;7.40;;;;;;;-147.86;100.00;46277.37;105949;1255;73913;-50
2023/12/21 00:39:02;;;;;;;19.30;7.40;;;;;;;-147.86;100.00;46274.63;105889;1253;64717;-51
2023/12/21 00:41:29;;;;;;;12.50;6.70;;;;;;;-147.86;100.00;46274.23;105949;1259;72472;-46
2023/12/21 00:43:56;;;;;;;17.00;6.70;;;;;;;-147.86;100.00;46276.58;105826;1257;61796;-48
2023/12/21 00:46:23;;;;;;;15.60;7.40;;;;;;;-147.86;100.00;46277.37;105875;1253;62002;-49
2023/12/21 00:48:50;;;;;;;16.00;7.20;;;;;;;-147.86;100.00;46274.23;105863;1259;73874;-50
2023/12/21 00:51:17;;;;;;;14.20;7.70;;;;;;;-147.86;100.00;46278.93;105808;1259;64614;-50
2023/12/21 00:53:44;;;;;;;17.30;7.70;;;;;;;-147.86;100.00;46278.15;105805;1254;72691;-51
2023/12/21 00:56:11;;;;;;;15.50;7.20;;;;;;;-147.86;100.00;46276.97;105874;1259;61828;-47
2023/12/21 00:58:38;;;;;;;10.90;6.80;;;;;;;-147.86;100.00;46276.19;105786;1254;60447;-50
2023/12/21 01:01:05;;;;;;;14.20;7.40;;;;;;;-147.86;100.00;46276.98;105793;1259;74024;-52
2023/12/21 01:03:32;;;;;;;16.30;8.10;;;;;;;-147.86;100.00;46274.62;105872;1257;64679;-46
2023/12/21 01:05:59;;;;;;;15.90;7.80;;;;;;;-147.86;100.00;46278.54;105834;1254;72807;-51
2023/12/21 01:08:26;;;;;;;19.50;8.10;;;;;;;-147.86;100.00;46277.76;105768;1255;61901;-49
2023/12/21 01:10:53;;;;;;;14.30;7.30;;;;;;;-147.86;100.00;46276.97;105833;1254;60796;-48
2023/12/21 01:13:20;;;;;;;14.20;6.50;;;;;;;-147.86;100.00;46278.93;105812;1259;73856;-49
2023/12/21 01:15:46;;;;;;;12.10;6.60;;;;;;;-147.86;100.00;46278.15;105842;1256;64720;-50
2023/12/21 01:18:13;;;;;;;15.30;7.40;;;;;;;-147.86;100.00;46275.40;105892;1259;71636;-52
2023/12/21 01:20:40;;;;;;;16.40;8.20;;;;;;;-147.86;100.00;46276.19;105879;1258;60428;-50
2023/12/21 01:23:07;;;;;;;17.10;7.90;;;;;;;-147.86;100.00;46279.32;105657;1254;60457;-52
2023/12/21 01:25:33;;;;;;;15.80;7.60;;;;;;;-147.86;100.00;46277.76;105877;1257;73795;-49
2023/12/21 01:28:00;;;;;;;14.60;7.90;;;;;;;-147.86;100.00;46275.41;105841;1254;64642;-50
2023/12/21 01:30:27;;;;;;;18.40;7.00;;;;;;;-147.86;100.00;46276.97;105765;1254;72609;-51
2023/12/21 01:32:54;;;;;;;15.30;8.00;;;;;;;-147.86;100.00;46276.19;105807;1259;60421;-49
2023/12/21 01:35:21;;;;;;;22.30;9.50;;;;;;;-147.86;100.00;46276.58;105891;1254;60907;-50
2023/12/21 01:37:48;;;;;;;20.10;8.80;;;;;;;-147.86;100.00;46280.11;105613;1254;305050;-47
2023/12/21 01:42:40;;;;;;;17.80;8.50;;;;;;;-147.86;100.00;46185.67;102418;1293;615226;-50
2023/12/21 01:45:08;;;;;;;20.60;8.80;;;;;;;-147.86;100.00;46271.09;104846;1270;59268;-50
2023/12/21 01:47:35;;;;;;;16.50;8.90;;;;;;;-147.86;100.00;46278.15;104913;1267;60397;-53
2023/12/21 01:50:02;;;;;;;17.80;9.30;;;;;;;-147.86;100.00;46278.15;104894;1270;72205;-49
2023/12/21 01:52:29;;;;;;;14.50;8.80;;;;;;;-147.86;100.00;46276.19;104857;1270;64664;-54
2023/12/21 01:54:56;;;;;;;16.60;9.10;;;;;;;-147.86;100.00;46275.41;104998;1265;375592;-52
2023/12/21 01:57:23;;;;;;;26.70;9.50;;;;;;;-147.86;100.00;46276.19;105489;1262;61937;-54
2023/12/21 01:59:51;;;;;;;17.30;9.10;;;;;;;-147.86;100.00;46276.19;105350;1264;60061;-48
2023/12/21 02:02:19;;;;;;;21.00;9.40;;;;;;;-147.86;100.00;46274.62;105268;1263;72113;-49
2023/12/21 02:04:47;;;;;;;16.10;9.80;;;;;;;-147.86;100.00;46275.40;105579;1262;64509;-50
2023/12/21 02:07:13;;;;;;;18.20;9.50;;;;;;;-147.86;100.00;46273.45;105505;1262;72652;-52
2023/12/21 02:09:40;;;;;;;37.00;10.60;;;;;;;-147.86;100.00;46274.23;105475;1262;62057;-49
2023/12/21 02:12:07;;;;;;;19.00;8.90;;;;;;;-147.86;100.00;46275.01;105531;1260;60009;-51
2023/12/21 02:14:34;;;;;;;19.20;9.00;;;;;;;-147.86;100.00;46273.84;105500;1261;72987;-51
2023/12/21 02:17:13;;;;;;;21.10;9.60;;;;;;;-147.86;100.00;46274.62;105495;1262;64730;-54
2023/12/21 02:19:40;;;;;;;27.60;11.00;;;;;;;-147.86;100.00;46275.01;105476;1262;72461;-46
2023/12/21 02:22:07;;;;;;;22.50;10.70;;;;;;;-147.86;100.00;46273.45;105497;1262;60297;-47
2023/12/21 02:24:34;;;;;;;20.20;10.10;;;;;;;-147.86;100.00;46274.23;105536;1260;60410;-49
2023/12/21 02:27:01;;;;;;;22.40;10.40;;;;;;;-147.86;100.00;46270.31;105264;1260;72781;-47
2023/12/21 02:29:28;;;;;;;21.00;9.60;;;;;;;-147.86;100.00;46270.31;105499;1262;64690;-48
2023/12/21 02:31:55;;;;;;;18.50;9.80;;;;;;;-147.86;100.00;46271.48;105508;1260;72834;-55
2023/12/21 02:34:22;;;;;;;31.90;10.80;;;;;;;-147.86;100.00;46273.05;105474;1262;60316;-51
2023/12/21 02:36:49;;;;;;;23.10;10.80;;;;;;;-147.86;100.00;46271.48;105547;1260;60256;-51
2023/12/21 02:39:15;;;;;;;21.90;10.40;;;;;;;-147.86;100.00;46271.49;105570;1258;72993;-48
2023/12/21 02:41:42;;;;;;;23.40;10.30;;;;;;;-147.86;100.00;46271.49;105522;1262;64705;-49
2023/12/21 02:44:09;;;;;;;21.50;9.60;;;;;;;-147.86;100.00;46269.14;105510;1262;72648;-48
2023/12/21 02:46:36;;;;;;;16.50;9.30;;;;;;;-147.86;100.00;46268.74;105586;1258;61858;-51
2023/12/21 02:49:03;;;;;;;18.20;9.80;;;;;;;-147.86;100.00;46268.74;105594;1257;60414;-52
2023/12/21 02:51:30;;;;;;;20.20;10.60;;;;;;;-147.86;100.00;46266.39;105545;1262;71929;-53
2023/12/21 02:53:57;;;;;;;17.30;10.20;;;;;;;-147.86;100.00;46266.79;105533;1262;64535;-50
2023/12/21 02:56:23;;;;;;;22.10;10.60;;;;;;;-147.86;100.00;46265.21;105575;1260;71523;-51
2023/12/21 02:58:50;;;;;;;23.30;11.10;;;;;;;-147.86;100.00;46266.00;105564;1263;62018;-52
2023/12/21 03:01:17;;;;;;;18.50;10.20;;;;;;;-147.86;100.00;46263.65;105560;1260;60138;-50
2023/12/21 03:03:44;;;;;;;24.10;10.50;;;;;;;-147.86;100.00;46264.43;105570;1263;72034;-49
2023/12/21 03:06:11;;;;;;;19.50;10.50;;;;;;;-147.86;100.00;46264.43;105579;1263;64551;-48
2023/12/21 03:08:39;;;;;;;21.60;10.70;;;;;;;-147.86;100.00;46264.04;105527;1260;72527;-54
2023/12/21 03:11:06;;;;;;;21.70;10.80;;;;;;;-147.86;100.00;46260.52;105572;1260;60693;-50
2023/12/21 03:13:33;;;;;;;22.80;11.20;;;;;;;-147.86;100.00;46264.43;105552;1257;60068;-52
2023/12/21 03:16:05;;;;;;;19.90;10.40;;;;;;;-147.86;100.00;46264.82;105589;1262;72757;-51
2023/12/21 03:18:32;;;;;;;24.20;9.70;;;;;;;-147.86;100.00;46264.43;105549;1262;63356;-50
2023/12/21 03:20:59;;;;;;;22.70;10.70;;;;;;;-147.86;100.00;46261.30;105578;1262;72387;-52
2023/12/21 03:23:25;;;;;;;25.80;10.10;;;;;;;-147.86;100.00;46260.52;105332;1262;60314;-53
2023/12/21 03:25:52;;;;;;;15.30;10.00;;;;;;;-147.86;100.00;46261.30;105178;1258;60337;-49
2023/12/21 03:28:20;;;;;;;25.10;10.50;;;;;;;-147.86;100.00;46263.26;105320;1258;71793;-49
2023/12/21 03:30:47;;;;;;;18.30;10.10;;;;;;;-147.86;100.00;46261.30;105601;1262;64650;-50
2023/12/21 03:33:14;;;;;;;20.10;10.40;;;;;;;-147.86;100.00;46263.26;105598;1263;72519;-53
2023/12/21 03:35:41;;;;;;;21.30;10.40;;;;;;;-147.86;100.00;46261.69;105547;1262;60319;-52
2023/12/21 03:38:07;;;;;;;23.50;10.40;;;;;;;-147.86;100.00;46262.87;105515;1258;60321;-51
2023/12/21 03:40:34;;;;;;;19.30;10.70;;;;;;;-147.86;100.00;46261.69;105597;1262;73054;-47
2023/12/21 03:43:02;;;;;;;18.90;10.30;;;;;;;-147.86;100.00;46259.73;105583;1262;64705;-49
2023/12/21 03:45:29;;;;;;;17.90;9.70;;;;;;;-147.86;100.00;46259.34;105637;1261;72551;-49
2023/12/21 03:47:56;;;;;;;16.70;9.30;;;;;;;-147.86;100.00;46259.73;105520;1262;62072;-48
2023/12/21 03:50:22;;;;;;;16.40;9.50;;;;;;;-147.86;100.00;46259.73;105580;1260;60333;-47
2023/12/21 03:52:49;;;;;;;17.80;9.40;;;;;;;-147.86;100.00;46261.30;105582;1262;71772;-51
2023/12/21 03:55:17;;;;;;;23.50;9.30;;;;;;;-147.86;100.00;46261.30;105598;1263;64673;-51
2023/12/21 03:57:44;;;;;;;15.10;9.30;;;;;;;-147.86;100.00;46260.91;105589;1263;72557;-49
2023/12/21 04:00:13;;;;;;;15.50;8.90;;;;;;;-147.86;100.00;46258.95;105501;1263;61801;-49
2023/12/21 04:02:39;;;;;;;19.40;9.70;;;;;;;-147.86;100.00;46260.12;105569;1257;60461;-55
2023/12/21 04:05:06;;;;;;;19.20;10.10;;;;;;;-147.86;100.00;46261.69;105574;1262;73040;-54
2023/12/21 04:07:34;;;;;;;24.40;9.80;;;;;;;-147.86;100.00;46260.91;105550;1263;64703;-52
2023/12/21 04:10:01;;;;;;;20.90;9.80;;;;;;;-147.86;100.00;46258.95;105599;1260;71442;-49
2023/12/21 04:12:28;;;;;;;19.60;9.60;;;;;;;-147.86;100.00;46264.43;105536;1262;60869;-49
2023/12/21 04:14:56;;;;;;;16.20;9.30;;;;;;;-147.86;100.00;46263.65;105575;1258;60153;-54
2023/12/21 04:17:23;;;;;;;17.60;9.70;;;;;;;-147.86;100.00;46263.65;105573;1263;72842;-50
2023/12/21 04:19:51;;;;;;;12.20;8.60;;;;;;;-147.86;100.00;46264.82;105568;1262;64654;-47
2023/12/21 04:22:18;;;;;;;16.80;9.20;;;;;;;-147.86;100.00;46266.39;105558;1262;72709;-50
2023/12/21 04:24:45;;;;;;;20.30;9.60;;;;;;;-147.86;100.00;46266.00;105462;1262;61969;-53
2023/12/21 04:27:12;;;;;;;21.50;9.90;;;;;;;-147.86;100.00;46266.39;105541;1263;60448;-49
2023/12/21 04:29:39;;;;;;;17.20;9.30;;;;;;;-147.86;100.00;46262.87;105595;1263;73015;-52
2023/12/21 04:32:06;;;;;;;18.30;8.50;;;;;;;-147.86;100.00;46262.48;105676;1263;64857;-52
2023/12/21 04:34:33;;;;;;;18.20;9.10;;;;;;;-147.86;100.00;46265.61;105567;1258;72420;-51
2023/12/21 04:37:00;;;;;;;17.30;9.90;;;;;;;-147.86;100.00;46266.00;105515;1263;60426;-52
2023/12/21 04:39:27;;;;;;;16.40;10.10;;;;;;;-147.86;100.00;46264.43;105565;1263;60150;-46
2023/12/21 04:41:54;;;;;;;19.00;9.40;;;;;;;-147.86;100.00;46265.61;105563;1263;73011;-52
2023/12/21 04:44:21;;;;;;;22.80;9.80;;;;;;;-147.86;100.00;46265.61;105550;1263;64598;-49
2023/12/21 04:46:49;;;;;;;22.20;9.10;;;;;;;-147.86;100.00;46262.48;105544;1262;72448;-51
2023/12/21 04:49:17;;;;;;;16.80;9.50;;;;;;;-147.86;100.00;46264.43;105562;1270;60824;-49
2023/12/21 04:51:45;;;;;;;14.50;8.60;;;;;;;-147.86;100.00;46265.61;105605;1260;60151;-50
2023/12/21 04:54:13;;;;;;;16.70;9.20;;;;;;;-147.86;100.00;46263.65;105646;1258;73075;-51
2023/12/21 04:56:41;;;;;;;17.90;9.90;;;;;;;-147.86;100.00;46264.43;105508;1263;64783;-51
2023/12/21 04:59:07;;;;;;;16.50;10.00;;;;;;;-147.86;100.00;46264.43;105542;1263;71400;-48
2023/12/21 05:01:34;;;;;;;18.20;10.10;;;;;;;-147.86;100.00;46266.39;105552;1262;62417;-48
2023/12/21 05:04:06;;;;;;;16.70;9.30;;;;;;;-147.86;100.00;46264.04;105545;1260;60204;-46
2023/12/21 05:06:33;;;;;;;18.70;10.30;;;;;;;-147.86;100.00;46265.22;105554;1262;73046;-49
2023/12/21 05:09:00;;;;;;;18.20;11.20;;;;;;;-147.86;100.00;46265.21;105532;1262;64532;-47
2023/12/21 05:11:27;;;;;;;19.80;10.60;;;;;;;-147.86;100.00;46266.39;105527;1262;72647;-52
2023/12/21 05:13:54;;;;;;;25.00;12.30;;;;;;;-147.86;100.00;46264.04;105588;1263;62173;-47
2023/12/21 05:16:21;;;;;;;23.00;10.80;;;;;;;-147.86;100.00;46266.39;105647;1257;60199;-47
2023/12/21 05:18:49;;;;;;;19.80;11.00;;;;;;;-147.86;100.00;46268.74;105615;1263;72993;-49
2023/12/21 05:21:16;;;;;;;18.60;10.60;;;;;;;-147.86;100.00;46270.30;105583;1263;64595;-49
2023/12/21 05:23:43;;;;;;;24.10;12.50;;;;;;;-147.86;100.00;46267.96;105564;1263;72690;-50
2023/12/21 05:26:13;;;;;;;25.60;12.10;;;;;;;-147.86;100.00;46267.96;105532;1263;61814;-50
2023/12/21 05:28:41;;;;;;;18.80;11.10;;;;;;;-147.86;100.00;46268.74;105544;1258;60316;-52
2023/12/21 05:31:09;;;;;;;22.70;12.00;;;;;;;-147.86;100.00;46269.52;105505;1263;71527;-51
2023/12/21 05:33:36;;;;;;;21.30;11.20;;;;;;;-147.86;100.00;46272.27;105589;1263;65110;-50
2023/12/21 05:36:03;;;;;;;17.30;11.50;;;;;;;-147.86;100.00;46268.35;105558;1263;72628;-50
2023/12/21 05:38:30;;;;;;;24.40;12.10;;;;;;;-147.86;100.00;46267.57;105580;1261;61874;-53
2023/12/21 05:40:57;;;;;;;23.40;11.50;;;;;;;-147.86;100.00;46271.09;105553;1263;60085;-52
2023/12/21 05:43:23;;;;;;;19.90;11.70;;;;;;;-147.86;100.00;46269.13;105564;1263;73006;-50
2023/12/21 05:45:50;;;;;;;20.70;12.60;;;;;;;-147.86;100.00;46267.96;105590;1263;64610;-47
2023/12/21 05:48:17;;;;;;;23.80;12.30;;;;;;;-147.86;100.00;46267.96;105559;1262;71613;-50
2023/12/21 05:50:44;;;;;;;21.70;12.30;;;;;;;-147.86;100.00;46265.61;105324;1263;60449;-51
2023/12/21 05:53:11;;;;;;;22.20;11.80;;;;;;;-147.86;100.00;46269.14;105499;1257;60456;-52
2023/12/21 05:55:38;;;;;;;21.20;12.50;;;;;;;-147.86;100.00;46266.39;105546;1258;74196;-51
2023/12/21 05:58:05;;;;;;;19.60;11.80;;;;;;;-147.86;100.00;46264.82;105529;1262;64811;-52
2023/12/21 06:00:32;;;;;;;20.70;12.20;;;;;;;-147.86;100.00;46266.79;105532;1257;72632;-51
2023/12/21 06:02:59;;;;;;;23.40;14.30;;;;;;;-147.86;100.00;46266.79;105520;1262;60440;-50
2023/12/21 06:05:26;;;;;;;27.80;13.60;;;;;;;-147.86;100.00;46269.53;105597;1258;60446;-49
2023/12/21 06:07:52;;;;;;;24.00;13.80;;;;;;;-147.86;100.00;46264.43;105571;1258;73903;-52
2023/12/21 06:10:19;;;;;;;27.00;15.80;;;;;;;-147.86;100.00;46267.57;105590;1263;64671;-46
2023/12/21 06:12:47;;;;;;;23.90;16.00;;;;;;;-147.86;100.00;46266.78;105554;1264;72701;-48
2023/12/21 06:15:14;;;;;;;27.00;16.20;;;;;;;-147.86;100.00;46263.65;105620;1257;61947;-52
2023/12/21 06:17:41;;;;;;;25.30;16.90;;;;;;;-147.86;100.00;46264.82;105577;1257;60549;-50
2023/12/21 06:20:09;;;;;;;28.90;17.50;;;;;;;-147.86;100.00;46264.43;105545;1263;73807;-49
2023/12/21 06:22:36;;;;;;;28.90;16.70;;;;;;;-147.86;100.00;46262.09;105555;1259;64411;-46
2023/12/21 06:25:04;;;;;;;30.80;16.60;;;;;;;-147.86;100.00;46263.26;105551;1261;72498;-53
2023/12/21 06:27:32;;;;;;;33.60;17.90;;;;;;;-147.86;100.00;46258.16;105572;1257;61864;-50
2023/12/21 06:29:59;;;;;;;33.10;18.00;;;;;;;-147.86;100.00;46260.91;105543;1258;60444;-47
2023/12/21 06:32:26;;;;;;;33.20;17.80;;;;;;;-147.86;100.00;46262.48;105541;1261;73681;-51
2023/12/21 06:34:53;;;;;;;33.80;18.30;;;;;;;-147.86;100.00;46262.08;105578;1261;64528;-52
2023/12/21 06:37:20;;;;;;;33.00;19.20;;;;;;;-147.86;100.00;46260.12;105598;1261;72645;-52
2023/12/21 06:39:49;;;;;;;36.60;20.00;;;;;;;-147.86;100.00;46263.26;105565;1263;62087;-52
2023/12/21 06:42:16;;;;;;;37.40;21.40;;;;;;;-147.86;100.00;46259.73;105561;1263;60507;-48
2023/12/21 06:44:42;;;;;;;33.50;20.00;;;;;;;-147.86;100.00;46260.12;105565;1258;73885;-49
2023/12/21 06:47:09;;;;;;;33.70;19.30;;;;;;;-147.86;100.00;46261.30;105589;1263;64646;-51
2023/12/21 06:49:36;;;;;;;35.40;20.20;;;;;;;-147.86;100.00;46260.12;105494;1257;72660;-46
2023/12/21 06:52:03;;;;;;;39.10;20.90;;;;;;;-147.86;100.00;46262.87;105575;1262;60815;-46
2023/12/21 06:54:30;;;;;;;42.00;21.80;;;;;;;-147.86;100.00;46262.09;105563;1258;60421;-48
2023/12/21 06:56:57;;;;;;;44.80;21.60;;;;;;;-147.86;100.00;46258.95;105524;1262;73867;-48
2023/12/21 06:59:25;;;;;;;39.60;22.30;;;;;;;-147.86;100.00;46258.95;105553;1262;64755;-49
2023/12/21 07:01:52;;;;;;;34.30;19.80;;;;;;;-147.86;100.00;46256.59;105242;1258;72614;-49
2023/12/21 07:04:19;;;;;;;39.20;20.40;;;;;;;-147.86;100.00;46255.81;105626;1263;61738;-52
2023/12/21 07:06:46;;;;;;;40.60;22.20;;;;;;;-147.86;100.00;46256.59;105534;1262;60453;-51
2023/12/21 07:09:14;;;;;;;40.20;21.80;;;;;;;-147.86;100.00;46255.42;105529;1262;75038;-45
2023/12/21 07:11:41;;;;;;;36.00;20.00;;;;;;;-147.86;100.00;46254.63;105586;1263;63646;-51
2023/12/21 07:14:08;;;;;;;38.40;20.60;;;;;;;-147.86;100.00;46255.42;105542;1263;73102;-50
2023/12/21 07:16:35;;;;;;;34.50;20.10;;;;;;;-147.86;100.00;46253.46;105554;1264;62279;-49
2023/12/21 07:19:02;;;;;;;30.60;17.90;;;;;;;-147.86;100.00;46250.33;105573;1257;60460;-51
2023/12/21 07:21:31;;;;;;;33.30;20.90;;;;;;;-147.86;100.00;46250.32;105725;1254;73773;-54
2023/12/21 07:23:58;;;;;;;32.80;19.80;;;;;;;-147.86;100.00;46249.93;105696;1261;64852;-52
2023/12/21 07:26:26;;;;;;;33.60;19.20;;;;;;;-147.86;100.00;46249.93;105684;1254;72709;-47
2023/12/21 07:28:53;;;;;;;31.40;19.10;;;;;;;-147.86;100.00;46247.59;105719;1254;62220;-48
2023/12/21 07:31:20;;;;;;;31.50;18.70;;;;;;;-147.86;100.00;46248.37;105690;1254;60591;-50
2023/12/21 07:33:47;;;;;;;28.10;18.30;;;;;;;-147.86;100.00;46246.02;105656;1254;75023;-52
2023/12/21 07:36:15;;;;;;;30.70;17.50;;;;;;;-147.86;100.00;46248.37;105702;1257;64726;-51
2023/12/21 07:38:41;;;;;;;31.70;17.70;;;;;;;-147.86;100.00;46246.02;105734;1254;70843;-54
2023/12/21 07:41:08;;;;;;;30.20;17.20;;;;;;;-147.86;100.00;46245.63;105693;1258;61930;-48
2023/12/21 07:43:37;;;;;;;28.30;17.20;;;;;;;-147.86;100.00;46245.23;105679;1255;60527;-54
2023/12/21 07:46:04;;;;;;;35.00;18.70;;;;;;;-147.86;100.00;46243.27;105689;1261;73810;-53
2023/12/21 07:48:33;;;;;;;30.30;17.90;;;;;;;-147.86;100.00;46242.88;105703;1259;65875;-47
2023/12/21 07:51:00;;;;;;;31.40;18.00;;;;;;;-147.86;100.00;46244.45;105679;1254;74058;-53
2023/12/21 07:53:27;;;;;;;30.40;17.90;;;;;;;-147.86;100.00;46238.57;105679;1254;61019;-53
2023/12/21 07:55:54;;;;;;;29.80;17.10;;;;;;;-147.86;100.00;46239.75;105692;1254;60530;-49
2023/12/21 07:58:22;;;;;;;30.30;17.50;;;;;;;-147.86;100.00;46238.96;105659;1258;74084;-47
2023/12/21 08:00:49;;;;;;;27.70;16.40;;;;;;;-147.86;100.00;46234.65;105660;1258;64710;-52
2023/12/21 08:03:16;;;;;;;35.20;17.30;;;;;;;-147.86;100.00;46238.96;105658;1254;72776;-52
2023/12/21 08:05:43;;;;;;;27.70;15.60;;;;;;;-147.86;100.00;46236.22;105648;1259;61151;-53
2023/12/21 08:08:10;;;;;;;27.30;15.80;;;;;;;-147.86;100.00;46233.08;105682;1254;60524;-53
2023/12/21 08:10:37;;;;;;;27.60;16.10;;;;;;;-147.86;100.00;46235.43;105724;1254;73717;-53
2023/12/21 08:13:04;;;;;;;33.40;18.70;;;;;;;-147.86;100.00;46234.65;105710;1257;64778;-49
2023/12/21 08:15:31;;;;;;;32.90;19.20;;;;;;;-147.86;100.00;46231.91;105684;1254;71568;-53
2023/12/21 08:17:59;;;;;;;31.30;19.00;;;;;;;-147.86;100.00;46231.91;105690;1258;62398;-56
2023/12/21 08:20:27;;;;;;;33.60;19.60;;;;;;;-147.86;100.00;46233.48;105647;1254;60575;-52
2023/12/21 08:22:54;;;;;;;33.70;19.50;;;;;;;-147.86;100.00;46234.26;105676;1257;73905;-52
2023/12/21 08:25:23;;;;;;;30.80;20.10;;;;;;;-147.86;100.00;46231.91;105744;1257;64678;-51
2023/12/21 08:27:50;;;;;;;35.30;20.60;;;;;;;-147.86;100.00;46233.48;105480;1254;72734;-53
2023/12/21 08:30:16;;;;;;;40.50;21.80;;;;;;;-147.86;100.00;46236.22;105744;1260;61749;-54
2023/12/21 08:32:47;;;;;;;35.30;21.20;;;;;;;-147.86;100.00;46233.08;105680;1254;61690;-47
2023/12/21 08:35:15;;;;;;;32.90;20.80;;;;;;;-147.86;100.00;46232.69;105706;1254;71423;-58
2023/12/21 08:37:42;;;;;;;33.80;21.70;;;;;;;-147.86;100.00;46231.51;105707;1255;64566;-56
2023/12/21 08:40:11;;;;;;;38.50;22.20;;;;;;;-147.86;100.00;46233.48;105667;1254;72481;-54
2023/12/21 08:42:38;;;;;;;38.20;23.00;;;;;;;-147.86;100.00;46233.47;105705;1254;60435;-50
2023/12/21 08:45:05;;;;;;;44.00;24.40;;;;;;;-147.86;100.00;46231.12;105714;1256;60490;-52
2023/12/21 08:47:40;;;;;;;39.90;23.40;;;;;;;-147.86;100.00;46230.34;105663;1254;75094;-48
2023/12/21 08:50:10;;;;;;;35.40;21.40;;;;;;;-147.86;100.00;46227.21;105652;1260;64975;-52
2023/12/21 08:52:38;;;;;;;30.80;21.80;;;;;;;-147.86;100.00;46226.42;105729;1254;72639;-57
2023/12/21 08:55:07;;;;;;;32.90;22.20;;;;;;;-147.86;100.00;46221.33;105721;1257;61491;-54
2023/12/21 08:57:36;;;;;;;42.60;23.50;;;;;;;-147.86;100.00;46218.98;105692;1257;60537;-55
2023/12/21 09:00:10;;;;;;;38.60;23.50;;;;;;;-147.86;100.00;46219.37;105685;1254;72275;-52
2023/12/21 09:02:38;;;;;;;36.60;21.60;;;;;;;-147.86;100.00;46219.37;105669;1257;64354;-47
2023/12/21 09:05:06;;;;;;;34.80;21.60;;;;;;;-147.86;100.00;46217.80;105668;1257;74077;-47
2023/12/21 09:07:34;;;;;;;35.40;22.00;;;;;;;-147.86;100.00;46221.72;105724;1259;60755;-49
2023/12/21 09:10:03;;;;;;;36.60;21.50;;;;;;;-147.86;100.00;46221.32;105758;1254;60457;-52
2023/12/21 09:12:30;;;;;;;33.60;21.10;;;;;;;-147.86;100.00;46217.80;105666;1257;75015;-47
2023/12/21 09:14:57;;;;;;;30.30;19.40;;;;;;;-147.86;100.00;46214.27;105680;1258;64720;-53
2023/12/21 09:17:24;;;;;;;29.60;18.50;;;;;;;-147.86;100.00;46207.22;105615;1254;72517;-46
2023/12/21 09:19:51;;;;;;;30.00;18.70;;;;;;;-147.86;100.00;46204.08;105632;1258;61905;-50
2023/12/21 09:22:19;;;;;;;32.70;19.30;;;;;;;-147.86;100.00;46200.95;105696;1254;60674;-50
2023/12/21 09:24:46;;;;;;;31.10;21.20;;;;;;;-147.86;100.00;46198.21;105715;1254;73986;-49
2023/12/21 09:27:16;;;;;;;33.90;20.30;;;;;;;-147.86;100.00;46198.20;105699;1258;65003;-54
2023/12/21 09:29:43;;;;;;;29.20;19.20;;;;;;;-147.86;100.00;46193.50;105715;1253;72868;-49
2023/12/21 09:32:10;;;;;;;29.70;18.40;;;;;;;-147.86;100.00;46189.98;105666;1257;61680;-52
2023/12/21 09:34:38;;;;;;;32.30;19.30;;;;;;;-147.86;100.00;46188.02;105651;1254;60588;-48
2023/12/21 09:37:05;;;;;;;35.20;21.80;;;;;;;-147.86;100.00;46184.10;105681;1254;73890;-52
2023/12/21 09:39:32;;;;;;;37.40;21.90;;;;;;;-147.86;100.00;46182.53;105700;1258;65985;-52
2023/12/21 09:42:00;;;;;;;35.80;20.70;;;;;;;-147.86;100.00;46178.61;105653;1257;73919;-45
2023/12/21 09:44:31;;;;;;;39.20;20.60;;;;;;;-147.86;100.00;46174.70;105608;1257;60408;-51
2023/12/21 09:46:58;;;;;;;33.60;20.20;;;;;;;-147.86;100.00;46172.34;105598;1256;61038;-49
2023/12/21 09:49:27;;;;;;;28.50;19.30;;;;;;;-147.86;100.00;46168.82;105605;1254;73911;-52
2023/12/21 09:51:54;;;;;;;30.60;19.10;;;;;;;-147.86;100.00;46169.99;105711;1257;64566;-50
2023/12/21 09:54:21;;;;;;;25.40;14.40;;;;;;;-147.86;100.00;46167.25;105642;1257;73815;-47
2023/12/21 09:56:50;;;;;;;26.60;15.60;;;;;;;-147.86;100.00;46162.16;105540;1262;62308;-52
2023/12/21 09:59:17;;;;;;;22.00;14.00;;;;;;;-147.86;100.00;46160.98;105674;1256;60550;-47
2023/12/21 10:01:44;;;;;;;20.00;13.60;;;;;;;-147.86;100.00;46163.33;105626;1256;73688;-52
2023/12/21 10:04:13;;;;;;;25.90;14.70;;;;;;;-147.86;100.00;46162.94;105741;1257;64902;-51
2023/12/21 10:06:41;;;;;;;27.40;17.90;;;;;;;-147.86;100.00;46160.98;105663;1253;72737;-52
2023/12/21 10:09:08;;;;;;;25.30;16.60;;;;;;;-147.86;100.00;46162.15;105674;1254;62382;-50
2023/12/21 10:11:35;;;;;;;24.10;15.00;;;;;;;-147.86;100.00;46162.54;105744;1254;61603;-50
2023/12/21 10:14:03;;;;;;;35.70;17.10;;;;;;;-147.86;100.00;46160.20;105701;1254;73829;-47
2023/12/21 10:16:30;;;;;;;37.50;20.50;;;;;;;-147.86;100.00;46162.94;105695;1257;65896;-51
2023/12/21 10:18:58;;;;;;;29.80;18.80;;;;;;;-147.86;100.00;46166.85;105672;1254;74014;-46
2023/12/21 10:21:25;;;;;;;33.60;19.80;;;;;;;-147.86;100.00;46165.68;105719;1257;61993;-49
2023/12/21 10:23:52;;;;;;;34.10;18.30;;;;;;;-147.86;100.00;46166.07;105619;1256;60714;-54
2023/12/21 10:26:19;;;;;;;34.30;19.00;;;;;;;-147.86;100.00;46166.46;105648;1255;75068;-54
2023/12/21 10:28:47;;;;;;;37.50;20.30;;;;;;;-147.86;100.00;46169.21;105702;1257;64643;-50
2023/12/21 10:31:16;;;;;;;39.80;19.80;;;;;;;-147.86;100.00;46169.99;105640;1257;72614;-52
2023/12/21 10:33:43;;;;;;;42.70;21.10;;;;;;;-147.86;100.00;46170.38;105678;1257;61573;-47
2023/12/21 10:36:10;;;;;;;48.30;22.00;;;;;;;-147.86;100.00;46171.55;105682;1253;60603;-53
2023/12/21 10:38:37;;;;;;;34.60;20.30;;;;;;;-147.86;100.00;46172.73;105658;1258;73836;-47
2023/12/21 10:41:05;;;;;;;39.50;18.80;;;;;;;-147.86;100.00;46175.48;105717;1257;64696;-51
2023/12/21 10:43:34;;;;;;;30.90;18.70;;;;;;;-147.86;100.00;46179.00;105680;1254;72662;-51
2023/12/21 10:46:02;;;;;;;44.20;20.60;;;;;;;-147.86;100.00;46176.65;105674;1254;61427;-45
2023/12/21 10:48:31;;;;;;;46.80;20.60;;;;;;;-147.86;100.00;46178.22;105698;1254;61669;-44
2023/12/21 10:50:59;;;;;;;34.20;18.60;;;;;;;-147.86;100.00;46180.18;105638;1258;75025;-48
2023/12/21 10:53:26;;;;;;;34.50;18.50;;;;;;;-147.86;100.00;46180.18;105631;1254;65169;-47